Etusivu
METAR-TAF:

METAR-TAF

Lentoasemat :

Northeast Alabama Regional Airport

Gadsden, Alabama, Yhdysvallat

Leveyspiiri: 33-58N, Pituuspiiri: 086-05W, korkeus merenpinnasta: 173 m

Tämänhetkinen sää

Tämä raportti tehtiin 54 minuuttia sitten, kello 22.56 UTC
Tuuli 5 kn etelästä/kaakosta
Lämpötila 17°C
Kosteus 100%
Ilmanpaine 1009 hPa
Näkyvyys: 16.1 km
Muutamia pilviä 7000 ft:n korkeudessa
Hajanaisia pilviä 10000 ft:n korkeudessa
heikkoa sadetta

METAR: KGAD 252256Z AUTO 16005KT 10SM -RA FEW070 SCT100 17/17 A2981 RMK AO2 SLP098 P0001 T01670167

Aika: 18:50 (23:50 UTC)


TAF: puuttuu

Säähavainnot ja -ennusteet yli 4000 lentoasemalta (METAR- ja TAF-raportit).

Käytössä olevat sääasemat on merkitty karttaan keltaisilla ja punaisilla pisteillä.

Aseta hiiri pisteen päälle nähdäksesi sääaseman nimen.

Klikkaa sitten nähdäksesi säähavainnot ja -ennusteet.

Kartan vaihtaminen: klikkaa mustalla rastilla varustettuja vihreitä pisteitä, niin voit zoomata sisään; viivalla varustettua vihreää pistettä, niin voit zoomata ulos tai vihreitä nuolia, niin pääset viereisille kartoille.


METAR-TAF: